PWSweather.com
Personal Weather Stations
Station Observations
MENWDWX1
Menstrie, ScotlandGB

MenstrieScotlandGB

Lat: 56.148322, Lon: -3.85483

Elevation: 62

Station Type: Davis Vantage Pro 2

High Low Average
Temperature 58.7°F14.8°C 48.9°F9.4°C 53.3°F11.8°C
Dew Point 51.9°F11.1°C 42.3°F5.7°C 46.8°F8.2°C
Winds 15.0 mph 24.1 kmh Calm Calm 3.0 mph SE4.8 kmh SE
Wind Gusts 21.9 mph35.2 kmh -- 5.0 mph8.0 kmh
Humidity 80% 77% 78%
Pressure 29.57 in1001.4 mb 29.27 in991.2 mb -
Precipitation 0.45 in11.4 mm - -
Hour Temp Dew Point Humidity Winds Wind Gusts Pressure Precip Precip Rate Daily Precip Total
12:00 AM 54.5°F12.5°C 47.8°F8.8°C 78% 4.6 mph SW7.4 kmh SW 10.4 mph16.7 kmh 29.49 in998.6 mb - 0.00 in0.0 mm 0.00 in0.0 mm
12:05 AM 54.4°F12.4°C 47.7°F8.7°C 78% 3.5 mph SW5.6 kmh SW 5.8 mph9.3 kmh 29.50 in999.0 mb - 0.00 in0.0 mm 0.00 in0.0 mm
12:10 AM 54.4°F12.4°C 47.7°F8.7°C 78% 3.5 mph SW5.6 kmh SW 3.5 mph5.6 kmh 29.50 in999.0 mb - 0.00 in0.0 mm 0.00 in0.0 mm
12:15 AM 54.4°F12.4°C 47.7°F8.7°C 78% 3.5 mph SW5.6 kmh SW 3.5 mph5.6 kmh 29.50 in999.0 mb - 0.00 in0.0 mm 0.00 in0.0 mm
12:20 AM 54.2°F12.3°C 47.5°F8.6°C 78% 5.8 mph WSW9.3 kmh WSW 10.4 mph16.7 kmh 29.51 in999.3 mb - 0.00 in0.0 mm 0.00 in0.0 mm
12:25 AM 54.2°F12.3°C 47.5°F8.6°C 78% 3.5 mph WSW5.6 kmh WSW 6.9 mph11.1 kmh 29.50 in999.0 mb - 0.00 in0.0 mm 0.00 in0.0 mm
12:30 AM 54.1°F12.3°C 47.4°F8.6°C 78% 4.6 mph WSW7.4 kmh WSW 11.5 mph18.5 kmh 29.51 in999.3 mb - 0.00 in0.0 mm 0.00 in0.0 mm
12:35 AM 54.0°F12.2°C 47.3°F8.5°C 78% 4.6 mph WSW7.4 kmh WSW 8.1 mph13.0 kmh 29.51 in999.3 mb - 0.00 in0.0 mm 0.00 in0.0 mm
12:40 AM 54.0°F12.2°C 47.3°F8.5°C 78% 2.3 mph WSW3.7 kmh WSW 2.3 mph3.7 kmh 29.51 in999.3 mb - 0.00 in0.0 mm 0.00 in0.0 mm
12:45 AM 54.0°F12.2°C 47.3°F8.5°C 78% 4.6 mph WSW7.4 kmh WSW 10.4 mph16.7 kmh 29.52 in999.7 mb - 0.00 in0.0 mm 0.00 in0.0 mm
12:50 AM 54.0°F12.2°C 47.3°F8.5°C 78% 2.3 mph SW3.7 kmh SW 3.5 mph5.6 kmh 29.51 in999.3 mb - 0.00 in0.0 mm 0.00 in0.0 mm
12:55 AM 54.0°F12.2°C 47.6°F8.7°C 79% 2.3 mph SW3.7 kmh SW 3.5 mph5.6 kmh 29.51 in999.3 mb - 0.00 in0.0 mm 0.00 in0.0 mm
01:00 AM 53.9°F12.2°C 47.5°F8.6°C 79% 4.6 mph WSW7.4 kmh WSW 9.2 mph14.8 kmh 29.51 in999.3 mb - 0.00 in0.0 mm 0.00 in0.0 mm
01:05 AM 53.9°F12.2°C 47.5°F8.6°C 79% 1.2 mph WSW1.9 kmh WSW 2.3 mph3.7 kmh 29.51 in999.3 mb - 0.00 in0.0 mm 0.00 in0.0 mm
01:10 AM 53.8°F12.1°C 47.4°F8.6°C 79% 1.2 mph SW1.9 kmh SW 2.3 mph3.7 kmh 29.52 in999.7 mb - 0.00 in0.0 mm 0.00 in0.0 mm
01:15 AM 53.7°F12.1°C 47.3°F8.5°C 79% 1.2 mph SW1.9 kmh SW 3.5 mph5.6 kmh 29.53 in1000.0 mb - 0.00 in0.0 mm 0.00 in0.0 mm
01:20 AM 53.6°F12.0°C 47.2°F8.4°C 79% 1.2 mph SW1.9 kmh SW 2.3 mph3.7 kmh 29.52 in999.7 mb - 0.00 in0.0 mm 0.00 in0.0 mm
01:25 AM 53.5°F11.9°C 47.1°F8.4°C 79% 1.2 mph SW1.9 kmh SW 2.3 mph3.7 kmh 29.53 in1000.0 mb - 0.00 in0.0 mm 0.00 in0.0 mm
01:30 AM 53.3°F11.8°C 47.0°F8.3°C 79% Calm Calm 1.2 mph1.9 kmh 29.52 in999.7 mb - 0.00 in0.0 mm 0.00 in0.0 mm
01:35 AM 53.2°F11.8°C 46.9°F8.3°C 79% Calm Calm -- 29.54 in1000.3 mb - 0.00 in0.0 mm 0.00 in0.0 mm
01:40 AM 53.1°F11.7°C 46.8°F8.2°C 79% Calm Calm -- 29.54 in1000.3 mb - 0.00 in0.0 mm 0.00 in0.0 mm
01:45 AM 53.0°F11.7°C 46.7°F8.2°C 79% Calm Calm -- 29.54 in1000.3 mb - 0.00 in0.0 mm 0.00 in0.0 mm
01:50 AM 52.9°F11.6°C 46.6°F8.1°C 79% Calm Calm 2.3 mph3.7 kmh 29.54 in1000.3 mb - 0.00 in0.0 mm 0.00 in0.0 mm
01:55 AM 52.8°F11.6°C 46.5°F8.1°C 79% 1.2 mph N1.9 kmh N 3.5 mph5.6 kmh 29.53 in1000.0 mb - 0.00 in0.0 mm 0.00 in0.0 mm
02:00 AM 52.7°F11.5°C 46.0°F7.8°C 78% Calm Calm -- 29.53 in1000.0 mb - 0.00 in0.0 mm 0.00 in0.0 mm
02:05 AM 52.6°F11.4°C 45.9°F7.7°C 78% Calm Calm -- 29.53 in1000.0 mb - 0.00 in0.0 mm 0.00 in0.0 mm
02:10 AM 52.5°F11.4°C 45.8°F7.7°C 78% Calm Calm -- 29.53 in1000.0 mb - 0.00 in0.0 mm 0.00 in0.0 mm
02:15 AM 52.5°F11.4°C 45.8°F7.7°C 78% Calm Calm -- 29.54 in1000.3 mb - 0.00 in0.0 mm 0.00 in0.0 mm
02:20 AM 52.4°F11.3°C 45.7°F7.6°C 78% Calm Calm -- 29.55 in1000.7 mb - 0.00 in0.0 mm 0.00 in0.0 mm
02:25 AM 52.3°F11.3°C 45.6°F7.6°C 78% Calm Calm -- 29.54 in1000.3 mb - 0.00 in0.0 mm 0.00 in0.0 mm
02:30 AM 52.4°F11.3°C 45.7°F7.6°C 78% Calm Calm -- 29.54 in1000.3 mb - 0.00 in0.0 mm 0.00 in0.0 mm
02:35 AM 52.4°F11.3°C 45.7°F7.6°C 78% Calm Calm -- 29.54 in1000.3 mb - 0.00 in0.0 mm 0.00 in0.0 mm
02:40 AM 52.3°F11.3°C 45.6°F7.6°C 78% Calm Calm -- 29.55 in1000.7 mb - 0.00 in0.0 mm 0.00 in0.0 mm
02:45 AM 52.2°F11.2°C 45.5°F7.5°C 78% Calm Calm -- 29.55 in1000.7 mb - 0.00 in0.0 mm 0.00 in0.0 mm
02:50 AM 52.2°F11.2°C 45.5°F7.5°C 78% Calm Calm -- 29.55 in1000.7 mb - 0.00 in0.0 mm 0.00 in0.0 mm
02:55 AM 52.1°F11.2°C 45.4°F7.4°C 78% Calm Calm -- 29.55 in1000.7 mb - 0.00 in0.0 mm 0.00 in0.0 mm
03:00 AM 52.1°F11.2°C 45.4°F7.4°C 78% Calm Calm -- 29.55 in1000.7 mb - 0.00 in0.0 mm 0.00 in0.0 mm
03:05 AM 52.0°F11.1°C 45.4°F7.4°C 78% Calm Calm -- 29.55 in1000.7 mb - 0.00 in0.0 mm 0.00 in0.0 mm
03:10 AM 52.0°F11.1°C 45.4°F7.4°C 78% Calm Calm -- 29.55 in1000.7 mb - 0.00 in0.0 mm 0.00 in0.0 mm
03:15 AM 52.0°F11.1°C 45.4°F7.4°C 78% Calm Calm -- 29.54 in1000.3 mb - 0.00 in0.0 mm 0.00 in0.0 mm
03:20 AM 52.1°F11.2°C 45.4°F7.4°C 78% Calm Calm -- 29.54 in1000.3 mb - 0.00 in0.0 mm 0.00 in0.0 mm
03:25 AM 52.2°F11.2°C 45.5°F7.5°C 78% Calm Calm -- 29.53 in1000.0 mb - 0.00 in0.0 mm 0.00 in0.0 mm
03:30 AM 52.2°F11.2°C 45.6°F7.6°C 78% Calm Calm -- 29.53 in1000.0 mb - 0.00 in0.0 mm 0.00 in0.0 mm
03:35 AM 52.2°F11.2°C 45.5°F7.5°C 78% Calm Calm -- 29.53 in1000.0 mb - 0.00 in0.0 mm 0.00 in0.0 mm
03:40 AM 52.2°F11.2°C 45.5°F7.5°C 78% Calm Calm -- 29.53 in1000.0 mb - 0.00 in0.0 mm 0.00 in0.0 mm
03:45 AM 52.1°F11.2°C 45.5°F7.5°C 78% Calm Calm -- 29.54 in1000.3 mb - 0.00 in0.0 mm 0.00 in0.0 mm
03:50 AM 52.1°F11.2°C 45.4°F7.4°C 78% Calm Calm -- 29.54 in1000.3 mb - 0.00 in0.0 mm 0.00 in0.0 mm
03:55 AM 52.0°F11.1°C 45.4°F7.4°C 78% Calm Calm -- 29.54 in1000.3 mb - 0.00 in0.0 mm 0.00 in0.0 mm
04:00 AM 51.9°F11.1°C 45.3°F7.4°C 78% Calm Calm 3.5 mph5.6 kmh 29.54 in1000.3 mb - 0.00 in0.0 mm 0.00 in0.0 mm
04:05 AM 51.9°F11.1°C 45.3°F7.4°C 78% 1.2 mph N1.9 kmh N 2.3 mph3.7 kmh 29.55 in1000.7 mb - 0.00 in0.0 mm 0.00 in0.0 mm
04:10 AM 51.8°F11.0°C 45.2°F7.3°C 78% Calm Calm -- 29.55 in1000.7 mb - 0.00 in0.0 mm 0.00 in0.0 mm
04:15 AM 51.7°F10.9°C 45.1°F7.3°C 78% Calm Calm -- 29.55 in1000.7 mb - 0.00 in0.0 mm 0.00 in0.0 mm
04:20 AM 51.7°F10.9°C 45.1°F7.3°C 78% Calm Calm -- 29.56 in1001.0 mb - 0.00 in0.0 mm 0.00 in0.0 mm
04:25 AM 51.6°F10.9°C 45.0°F7.2°C 78% Calm Calm -- 29.56 in1001.0 mb - 0.00 in0.0 mm 0.00 in0.0 mm
04:30 AM 51.7°F10.9°C 45.1°F7.3°C 78% Calm Calm -- 29.56 in1001.0 mb - 0.00 in0.0 mm 0.00 in0.0 mm
04:35 AM 51.7°F10.9°C 45.1°F7.3°C 78% Calm Calm -- 29.57 in1001.4 mb - 0.00 in0.0 mm 0.00 in0.0 mm
04:40 AM 51.6°F10.9°C 45.0°F7.2°C 78% Calm Calm -- 29.57 in1001.4 mb - 0.00 in0.0 mm 0.00 in0.0 mm
04:45 AM 51.6°F10.9°C 45.0°F7.2°C 78% Calm Calm -- 29.56 in1001.0 mb - 0.00 in0.0 mm 0.00 in0.0 mm
04:50 AM 51.6°F10.9°C 44.6°F7.0°C 77% Calm Calm -- 29.55 in1000.7 mb - 0.00 in0.0 mm 0.00 in0.0 mm
04:55 AM 51.6°F10.9°C 45.0°F7.2°C 78% Calm Calm -- 29.55 in1000.7 mb - 0.00 in0.0 mm 0.00 in0.0 mm
05:00 AM 51.6°F10.9°C 45.0°F7.2°C 78% Calm Calm -- 29.55 in1000.7 mb - 0.00 in0.0 mm 0.00 in0.0 mm
05:05 AM 51.6°F10.9°C 45.0°F7.2°C 78% Calm Calm -- 29.55 in1000.7 mb - 0.00 in0.0 mm 0.00 in0.0 mm
05:10 AM 51.6°F10.9°C 45.0°F7.2°C 78% Calm Calm -- 29.55 in1000.7 mb - 0.00 in0.0 mm 0.00 in0.0 mm
05:15 AM 51.5°F10.8°C 44.5°F6.9°C 77% Calm Calm -- 29.54 in1000.3 mb - 0.00 in0.0 mm 0.00 in0.0 mm
05:20 AM 51.5°F10.8°C 44.5°F6.9°C 77% Calm Calm -- 29.54 in1000.3 mb - 0.00 in0.0 mm 0.00 in0.0 mm
05:25 AM 51.4°F10.8°C 44.4°F6.9°C 77% Calm Calm -- 29.54 in1000.3 mb - 0.00 in0.0 mm 0.00 in0.0 mm
05:30 AM 51.4°F10.8°C 44.4°F6.9°C 77% Calm Calm -- 29.55 in1000.7 mb - 0.00 in0.0 mm 0.00 in0.0 mm
05:35 AM 51.4°F10.8°C 44.4°F6.9°C 77% Calm Calm -- 29.55 in1000.7 mb - 0.00 in0.0 mm 0.00 in0.0 mm
05:40 AM 51.5°F10.8°C 44.5°F6.9°C 77% Calm Calm -- 29.55 in1000.7 mb - 0.00 in0.0 mm 0.00 in0.0 mm
05:45 AM 51.5°F10.8°C 44.5°F6.9°C 77% Calm Calm -- 29.55 in1000.7 mb - 0.00 in0.0 mm 0.00 in0.0 mm
05:50 AM 51.4°F10.8°C 44.4°F6.9°C 77% 2.3 mph NE3.7 kmh NE 3.5 mph5.6 kmh 29.54 in1000.3 mb - 0.01 in0.3 mm 0.01 in0.3 mm
05:55 AM 51.4°F10.8°C 44.8°F7.1°C 78% 2.3 mph ENE3.7 kmh ENE 2.3 mph3.7 kmh 29.54 in1000.3 mb - 0.00 in0.0 mm 0.01 in0.3 mm
06:00 AM 51.3°F10.7°C 44.7°F7.1°C 78% 1.2 mph E1.9 kmh E 2.3 mph3.7 kmh 29.55 in1000.7 mb - 0.00 in0.0 mm 0.01 in0.3 mm
06:05 AM 51.3°F10.7°C 44.7°F7.1°C 78% 1.2 mph E1.9 kmh E 2.3 mph3.7 kmh 29.54 in1000.3 mb - 0.00 in0.0 mm 0.01 in0.3 mm
06:10 AM 51.2°F10.7°C 44.6°F7.0°C 78% 1.2 mph E1.9 kmh E 2.3 mph3.7 kmh 29.54 in1000.3 mb - 0.00 in0.0 mm 0.01 in0.3 mm
06:15 AM 51.1°F10.6°C 44.5°F6.9°C 78% Calm Calm -- 29.55 in1000.7 mb - 0.00 in0.0 mm 0.01 in0.3 mm
06:20 AM 51.1°F10.6°C 44.5°F6.9°C 78% Calm Calm -- 29.55 in1000.7 mb - 0.00 in0.0 mm 0.01 in0.3 mm
06:25 AM 51.0°F10.6°C 44.4°F6.9°C 78% Calm Calm -- 29.55 in1000.7 mb - 0.01 in0.3 mm 0.02 in0.5 mm
06:30 AM 51.0°F10.6°C 44.4°F6.9°C 78% Calm Calm -- 29.55 in1000.7 mb - 0.00 in0.0 mm 0.02 in0.5 mm
06:35 AM 51.2°F10.7°C 44.5°F6.9°C 78% 2.3 mph ESE3.7 kmh ESE 2.3 mph3.7 kmh 29.55 in1000.7 mb - 0.00 in0.0 mm 0.02 in0.5 mm
06:40 AM 51.1°F10.6°C 44.5°F6.9°C 78% 1.2 mph ENE1.9 kmh ENE 3.5 mph5.6 kmh 29.55 in1000.7 mb - 0.00 in0.0 mm 0.02 in0.5 mm
06:45 AM 51.0°F10.6°C 44.4°F6.9°C 78% 1.2 mph NE1.9 kmh NE 2.3 mph3.7 kmh 29.55 in1000.7 mb - 0.00 in0.0 mm 0.02 in0.5 mm
06:50 AM 51.0°F10.6°C 44.4°F6.9°C 78% 3.5 mph ENE5.6 kmh ENE 3.5 mph5.6 kmh 29.56 in1001.0 mb - 0.00 in0.0 mm 0.02 in0.5 mm
06:55 AM 50.9°F10.5°C 44.3°F6.8°C 78% 3.5 mph E5.6 kmh E 3.5 mph5.6 kmh 29.56 in1001.0 mb - 0.00 in0.0 mm 0.02 in0.5 mm
07:00 AM 50.9°F10.5°C 44.3°F6.8°C 78% 2.3 mph ENE3.7 kmh ENE 3.5 mph5.6 kmh 29.56 in1001.0 mb - 0.00 in0.0 mm 0.02 in0.5 mm
07:05 AM 50.9°F10.5°C 44.3°F6.8°C 78% 3.5 mph ENE5.6 kmh ENE 3.5 mph5.6 kmh 29.55 in1000.7 mb - 0.00 in0.0 mm 0.02 in0.5 mm
07:10 AM 50.9°F10.5°C 44.3°F6.8°C 78% 2.3 mph E3.7 kmh E 3.5 mph5.6 kmh 29.55 in1000.7 mb - 0.00 in0.0 mm 0.02 in0.5 mm
07:15 AM 50.9°F10.5°C 44.6°F7.0°C 79% 2.3 mph ESE3.7 kmh ESE 3.5 mph5.6 kmh 29.55 in1000.7 mb - 0.01 in0.3 mm 0.03 in0.8 mm
07:20 AM 51.0°F10.6°C 44.7°F7.1°C 79% 2.3 mph E3.7 kmh E 3.5 mph5.6 kmh 29.55 in1000.7 mb - 0.00 in0.0 mm 0.03 in0.8 mm
07:25 AM 51.1°F10.6°C 44.8°F7.1°C 79% 2.3 mph E3.7 kmh E 3.5 mph5.6 kmh 29.55 in1000.7 mb - 0.00 in0.0 mm 0.03 in0.8 mm
07:30 AM 51.0°F10.6°C 44.7°F7.1°C 79% 2.3 mph ENE3.7 kmh ENE 3.5 mph5.6 kmh 29.54 in1000.3 mb - 0.00 in0.0 mm 0.03 in0.8 mm
07:35 AM 51.0°F10.6°C 44.7°F7.1°C 79% 1.2 mph ENE1.9 kmh ENE 3.5 mph5.6 kmh 29.54 in1000.3 mb - 0.00 in0.0 mm 0.03 in0.8 mm
07:40 AM 50.9°F10.5°C 44.6°F7.0°C 79% Calm Calm -- 29.54 in1000.3 mb - 0.00 in0.0 mm 0.03 in0.8 mm
07:45 AM 50.9°F10.5°C 44.7°F7.1°C 79% Calm Calm 2.3 mph3.7 kmh 29.54 in1000.3 mb - 0.00 in0.0 mm 0.03 in0.8 mm
07:50 AM 51.0°F10.6°C 44.7°F7.1°C 79% 1.2 mph ENE1.9 kmh ENE 3.5 mph5.6 kmh 29.54 in1000.3 mb - 0.00 in0.0 mm 0.03 in0.8 mm
07:55 AM 51.0°F10.6°C 44.7°F7.1°C 79% 2.3 mph E3.7 kmh E 3.5 mph5.6 kmh 29.54 in1000.3 mb - 0.00 in0.0 mm 0.03 in0.8 mm
08:00 AM 51.0°F10.6°C 44.7°F7.1°C 79% 1.2 mph E1.9 kmh E 1.2 mph1.9 kmh 29.54 in1000.3 mb - 0.00 in0.0 mm 0.03 in0.8 mm
08:05 AM 51.0°F10.6°C 44.7°F7.1°C 79% Calm Calm -- 29.54 in1000.3 mb - 0.00 in0.0 mm 0.03 in0.8 mm
08:10 AM 51.0°F10.6°C 44.8°F7.1°C 79% Calm Calm -- 29.54 in1000.3 mb - 0.00 in0.0 mm 0.03 in0.8 mm
08:15 AM 51.1°F10.6°C 44.8°F7.1°C 79% Calm Calm -- 29.53 in1000.0 mb - 0.01 in0.3 mm 0.03 in0.8 mm
08:20 AM 51.2°F10.7°C 44.9°F7.2°C 79% 3.5 mph E5.6 kmh E 3.5 mph5.6 kmh 29.53 in1000.0 mb - 0.01 in0.3 mm 0.03 in0.8 mm
08:25 AM 51.2°F10.7°C 44.9°F7.2°C 79% 2.3 mph ESE3.7 kmh ESE 3.5 mph5.6 kmh 29.52 in999.7 mb - 0.00 in0.0 mm 0.03 in0.8 mm
08:30 AM 51.3°F10.7°C 45.0°F7.2°C 79% 1.2 mph ESE1.9 kmh ESE 2.3 mph3.7 kmh 29.52 in999.7 mb - 0.00 in0.0 mm 0.03 in0.8 mm
08:35 AM 51.4°F10.8°C 45.1°F7.3°C 79% 2.3 mph ESE3.7 kmh ESE 3.5 mph5.6 kmh 29.52 in999.7 mb - 0.01 in0.3 mm 0.04 in1.0 mm
08:40 AM 51.4°F10.8°C 45.1°F7.3°C 79% 1.2 mph ESE1.9 kmh ESE 3.5 mph5.6 kmh 29.52 in999.7 mb - 0.01 in0.3 mm 0.04 in1.0 mm
08:45 AM 51.5°F10.8°C 45.2°F7.3°C 79% Calm Calm 1.2 mph1.9 kmh 29.52 in999.7 mb - 0.00 in0.0 mm 0.04 in1.0 mm
08:50 AM 51.5°F10.8°C 45.2°F7.3°C 79% 1.2 mph ESE1.9 kmh ESE 3.5 mph5.6 kmh 29.52 in999.7 mb - 0.01 in0.3 mm 0.05 in1.3 mm
08:55 AM 51.6°F10.9°C 45.3°F7.4°C 79% 1.2 mph ESE1.9 kmh ESE 1.2 mph1.9 kmh 29.52 in999.7 mb - 0.01 in0.3 mm 0.05 in1.3 mm
09:00 AM 51.7°F10.9°C 45.4°F7.4°C 79% Calm Calm -- 29.52 in999.7 mb - 0.01 in0.3 mm 0.06 in1.5 mm
09:05 AM 51.7°F10.9°C 45.4°F7.4°C 79% Calm Calm -- 29.52 in999.7 mb - 0.01 in0.3 mm 0.07 in1.8 mm
09:10 AM 51.8°F11.0°C 45.5°F7.5°C 79% Calm Calm -- 29.52 in999.7 mb - 0.02 in0.5 mm 0.07 in1.8 mm
09:15 AM 51.8°F11.0°C 45.5°F7.5°C 79% Calm Calm -- 29.52 in999.7 mb - 0.02 in0.5 mm 0.08 in2.0 mm
09:20 AM 51.8°F11.0°C 45.5°F7.5°C 79% Calm Calm -- 29.52 in999.7 mb - 0.02 in0.5 mm 0.09 in2.3 mm
09:25 AM 51.9°F11.1°C 45.6°F7.6°C 79% Calm Calm -- 29.52 in999.7 mb - 0.02 in0.5 mm 0.10 in2.5 mm
09:30 AM 51.9°F11.1°C 45.6°F7.6°C 79% Calm Calm -- 29.51 in999.3 mb - 0.01 in0.3 mm 0.11 in2.8 mm
09:35 AM 52.0°F11.1°C 45.6°F7.6°C 79% Calm Calm -- 29.51 in999.3 mb - 0.01 in0.3 mm 0.12 in3.0 mm
09:40 AM 52.0°F11.1°C 45.7°F7.6°C 79% Calm Calm -- 29.51 in999.3 mb - 0.01 in0.3 mm 0.12 in3.0 mm
09:45 AM 52.0°F11.1°C 45.7°F7.6°C 79% Calm Calm -- 29.50 in999.0 mb - 0.01 in0.3 mm 0.13 in3.3 mm
09:50 AM 52.1°F11.2°C 45.8°F7.7°C 79% Calm Calm 2.3 mph3.7 kmh 29.50 in999.0 mb - 0.01 in0.3 mm 0.14 in3.6 mm
09:55 AM 52.1°F11.2°C 45.8°F7.7°C 79% 2.3 mph NE3.7 kmh NE 3.5 mph5.6 kmh 29.49 in998.6 mb - 0.02 in0.5 mm 0.16 in4.1 mm
10:00 AM 52.2°F11.2°C 45.9°F7.7°C 79% Calm Calm -- 29.49 in998.6 mb - 0.01 in0.3 mm 0.16 in4.1 mm
10:05 AM 52.3°F11.3°C 46.0°F7.8°C 79% Calm Calm -- 29.48 in998.3 mb - 0.01 in0.3 mm 0.17 in4.3 mm
10:10 AM 52.5°F11.4°C 46.2°F7.9°C 79% Calm Calm -- 29.48 in998.3 mb - 0.00 in0.0 mm 0.17 in4.3 mm
10:15 AM 52.6°F11.4°C 46.3°F7.9°C 79% Calm Calm -- 29.48 in998.3 mb - 0.01 in0.3 mm 0.17 in4.3 mm
10:20 AM 52.8°F11.6°C 46.5°F8.1°C 79% 1.2 mph W1.9 kmh W 3.5 mph5.6 kmh 29.48 in998.3 mb - 0.01 in0.3 mm 0.18 in4.6 mm
10:25 AM 52.8°F11.6°C 46.5°F8.1°C 79% 2.3 mph WSW3.7 kmh WSW 3.5 mph5.6 kmh 29.48 in998.3 mb - 0.02 in0.5 mm 0.20 in5.1 mm
10:30 AM 52.8°F11.6°C 46.5°F8.1°C 79% 2.3 mph WSW3.7 kmh WSW 3.5 mph5.6 kmh 29.48 in998.3 mb - 0.02 in0.5 mm 0.21 in5.3 mm
10:35 AM 52.7°F11.5°C 46.4°F8.0°C 79% 1.2 mph WSW1.9 kmh WSW 2.3 mph3.7 kmh 29.48 in998.3 mb - 0.02 in0.5 mm 0.22 in5.6 mm
10:40 AM 52.8°F11.6°C 46.4°F8.0°C 79% 2.3 mph W3.7 kmh W 3.5 mph5.6 kmh 29.48 in998.3 mb - 0.02 in0.5 mm 0.23 in5.8 mm
10:45 AM 52.8°F11.6°C 46.5°F8.1°C 79% 2.3 mph WNW3.7 kmh WNW 3.5 mph5.6 kmh 29.47 in998.0 mb - 0.01 in0.3 mm 0.24 in6.1 mm
10:50 AM 52.8°F11.6°C 46.4°F8.0°C 79% 3.5 mph W5.6 kmh W 4.6 mph7.4 kmh 29.47 in998.0 mb - 0.01 in0.3 mm 0.25 in6.4 mm
10:55 AM 52.7°F11.5°C 46.4°F8.0°C 79% 2.3 mph WSW3.7 kmh WSW 3.5 mph5.6 kmh 29.46 in997.6 mb - 0.01 in0.3 mm 0.26 in6.6 mm
11:00 AM 52.6°F11.4°C 46.6°F8.1°C 80% 2.3 mph WSW3.7 kmh WSW 3.5 mph5.6 kmh 29.46 in997.6 mb - 0.01 in0.3 mm 0.27 in6.9 mm
11:05 AM 52.6°F11.4°C 46.6°F8.1°C 80% 2.3 mph WSW3.7 kmh WSW 3.5 mph5.6 kmh 29.46 in997.6 mb - 0.00 in0.0 mm 0.27 in6.9 mm
11:10 AM 52.7°F11.5°C 46.7°F8.2°C 80% 2.3 mph WNW3.7 kmh WNW 3.5 mph5.6 kmh 29.46 in997.6 mb - 0.01 in0.3 mm 0.27 in6.9 mm
11:15 AM 52.7°F11.5°C 46.7°F8.2°C 80% 1.2 mph WNW1.9 kmh WNW 2.3 mph3.7 kmh 29.45 in997.3 mb - 0.00 in0.0 mm 0.27 in6.9 mm
11:20 AM 52.7°F11.5°C 46.7°F8.2°C 80% Calm Calm -- 29.45 in997.3 mb - 0.01 in0.3 mm 0.28 in7.1 mm
11:25 AM 52.8°F11.6°C 46.8°F8.2°C 80% Calm Calm -- 29.45 in997.3 mb - 0.01 in0.3 mm 0.29 in7.4 mm
11:30 AM 52.9°F11.6°C 46.9°F8.3°C 80% 2.3 mph WSW3.7 kmh WSW 4.6 mph7.4 kmh 29.45 in997.3 mb - 0.01 in0.3 mm 0.30 in7.6 mm
11:35 AM 52.9°F11.6°C 46.9°F8.3°C 80% 3.5 mph WSW5.6 kmh WSW 4.6 mph7.4 kmh 29.45 in997.3 mb - 0.00 in0.0 mm 0.30 in7.6 mm
11:40 AM 52.8°F11.6°C 46.8°F8.2°C 80% 3.5 mph W5.6 kmh W 5.8 mph9.3 kmh 29.45 in997.3 mb - 0.01 in0.3 mm 0.31 in7.9 mm
11:45 AM 52.8°F11.6°C 46.8°F8.2°C 80% 1.2 mph W1.9 kmh W 3.5 mph5.6 kmh 29.44 in997.0 mb - 0.01 in0.3 mm 0.31 in7.9 mm
11:50 AM 52.9°F11.6°C 46.9°F8.3°C 80% 2.3 mph WSW3.7 kmh WSW 3.5 mph5.6 kmh 29.43 in996.6 mb - 0.00 in0.0 mm 0.31 in7.9 mm
11:55 AM 52.9°F11.6°C 46.9°F8.3°C 80% 2.3 mph WSW3.7 kmh WSW 3.5 mph5.6 kmh 29.44 in997.0 mb - 0.01 in0.3 mm 0.32 in8.1 mm
12:00 PM 52.9°F11.6°C 46.9°F8.3°C 80% 3.5 mph WSW5.6 kmh WSW 3.5 mph5.6 kmh 29.44 in997.0 mb - 0.01 in0.3 mm 0.33 in8.4 mm
12:05 PM 53.0°F11.7°C 47.0°F8.3°C 80% 2.3 mph W3.7 kmh W 3.5 mph5.6 kmh 29.43 in996.6 mb - 0.01 in0.3 mm 0.34 in8.6 mm
12:10 PM 53.0°F11.7°C 47.0°F8.3°C 80% 2.3 mph W3.7 kmh W 3.5 mph5.6 kmh 29.43 in996.6 mb - 0.01 in0.3 mm 0.35 in8.9 mm
12:15 PM 53.0°F11.7°C 47.0°F8.3°C 80% 3.5 mph WSW5.6 kmh WSW 4.6 mph7.4 kmh 29.43 in996.6 mb - 0.01 in0.3 mm 0.35 in8.9 mm
12:20 PM 53.0°F11.7°C 47.0°F8.3°C 80% 2.3 mph W3.7 kmh W 3.5 mph5.6 kmh 29.43 in996.6 mb - 0.01 in0.3 mm 0.36 in9.1 mm
12:25 PM 53.0°F11.7°C 47.0°F8.3°C 80% 1.2 mph W1.9 kmh W 2.3 mph3.7 kmh 29.42 in996.3 mb - 0.01 in0.3 mm 0.36 in9.1 mm
12:30 PM 52.9°F11.6°C 46.9°F8.3°C 80% Calm Calm 1.2 mph1.9 kmh 29.42 in996.3 mb - 0.01 in0.3 mm 0.37 in9.4 mm
12:35 PM 52.8°F11.6°C 46.8°F8.2°C 80% 2.3 mph WSW3.7 kmh WSW 3.5 mph5.6 kmh 29.42 in996.3 mb - 0.01 in0.3 mm 0.38 in9.7 mm
12:40 PM 52.8°F11.6°C 46.8°F8.2°C 80% 2.3 mph WNW3.7 kmh WNW 2.3 mph3.7 kmh 29.41 in995.9 mb - 0.00 in0.0 mm 0.38 in9.7 mm
12:45 PM 52.9°F11.6°C 46.9°F8.3°C 80% 2.3 mph WNW3.7 kmh WNW 3.5 mph5.6 kmh 29.40 in995.6 mb - 0.01 in0.3 mm 0.39 in9.9 mm
12:50 PM 52.9°F11.6°C 46.9°F8.3°C 80% Calm Calm -- 29.40 in995.6 mb - 0.01 in0.3 mm 0.40 in10.2 mm
12:55 PM 53.0°F11.7°C 47.0°F8.3°C 80% Calm Calm 2.3 mph3.7 kmh 29.40 in995.6 mb - 0.00 in0.0 mm 0.40 in10.2 mm
01:00 PM 53.2°F11.8°C 47.1°F8.4°C 80% 2.3 mph W3.7 kmh W 3.5 mph5.6 kmh 29.40 in995.6 mb - 0.00 in0.0 mm 0.40 in10.2 mm
01:05 PM 53.1°F11.7°C 47.1°F8.4°C 80% 2.3 mph WSW3.7 kmh WSW 3.5 mph5.6 kmh 29.39 in995.3 mb - 0.01 in0.3 mm 0.41 in10.4 mm
01:10 PM 53.2°F11.8°C 47.2°F8.4°C 80% 1.2 mph W1.9 kmh W 2.3 mph3.7 kmh 29.39 in995.3 mb - 0.01 in0.3 mm 0.41 in10.4 mm
01:15 PM 53.2°F11.8°C 47.2°F8.4°C 80% Calm Calm 1.2 mph1.9 kmh 29.38 in994.9 mb - 0.00 in0.0 mm 0.41 in10.4 mm
01:20 PM 53.3°F11.8°C 47.3°F8.5°C 80% 1.2 mph SE1.9 kmh SE 3.5 mph5.6 kmh 29.37 in994.6 mb - 0.01 in0.3 mm 0.42 in10.7 mm
01:25 PM 53.6°F12.0°C 47.6°F8.7°C 80% 3.5 mph E5.6 kmh E 3.5 mph5.6 kmh 29.37 in994.6 mb - 0.01 in0.3 mm 0.43 in10.9 mm
01:30 PM 53.8°F12.1°C 47.8°F8.8°C 80% 2.3 mph NE3.7 kmh NE 3.5 mph5.6 kmh 29.37 in994.6 mb - 0.00 in0.0 mm 0.43 in10.9 mm
01:35 PM 54.0°F12.2°C 47.9°F8.8°C 80% 3.5 mph E5.6 kmh E 5.8 mph9.3 kmh 29.37 in994.6 mb - 0.00 in0.0 mm 0.43 in10.9 mm
01:40 PM 54.0°F12.2°C 48.0°F8.9°C 80% 4.6 mph E7.4 kmh E 8.1 mph13.0 kmh 29.36 in994.2 mb - 0.00 in0.0 mm 0.43 in10.9 mm
01:45 PM 54.0°F12.2°C 48.0°F8.9°C 80% 5.8 mph ESE9.3 kmh ESE 9.2 mph14.8 kmh 29.36 in994.2 mb - 0.00 in0.0 mm 0.43 in10.9 mm
01:50 PM 54.0°F12.2°C 48.0°F8.9°C 80% 5.8 mph ESE9.3 kmh ESE 10.4 mph16.7 kmh 29.37 in994.6 mb - 0.00 in0.0 mm 0.43 in10.9 mm
01:55 PM 54.0°F12.2°C 48.0°F8.9°C 80% 8.1 mph E13.0 kmh E 13.8 mph22.2 kmh 29.36 in994.2 mb - 0.00 in0.0 mm 0.43 in10.9 mm
02:00 PM 54.1°F12.3°C 48.1°F8.9°C 80% 8.1 mph E13.0 kmh E 12.7 mph20.4 kmh 29.36 in994.2 mb - 0.00 in0.0 mm 0.43 in10.9 mm
02:05 PM 54.2°F12.3°C 48.2°F9.0°C 80% 6.9 mph ESE11.1 kmh ESE 9.2 mph14.8 kmh 29.36 in994.2 mb - 0.00 in0.0 mm 0.43 in10.9 mm
02:10 PM 54.2°F12.3°C 48.2°F9.0°C 80% 5.8 mph ESE9.3 kmh ESE 10.4 mph16.7 kmh 29.36 in994.2 mb - 0.00 in0.0 mm 0.43 in10.9 mm
02:15 PM 54.3°F12.4°C 47.9°F8.8°C 79% 8.1 mph E13.0 kmh E 13.8 mph22.2 kmh 29.35 in993.9 mb - 0.00 in0.0 mm 0.43 in10.9 mm
02:20 PM 54.4°F12.4°C 48.0°F8.9°C 79% 8.1 mph ESE13.0 kmh ESE 12.7 mph20.4 kmh 29.35 in993.9 mb - 0.00 in0.0 mm 0.43 in10.9 mm
02:25 PM 54.4°F12.4°C 48.0°F8.9°C 79% 9.2 mph E14.8 kmh E 12.7 mph20.4 kmh 29.34 in993.6 mb - 0.00 in0.0 mm 0.43 in10.9 mm
02:30 PM 54.4°F12.4°C 48.0°F8.9°C 79% 10.4 mph ESE16.7 kmh ESE 17.3 mph27.8 kmh 29.34 in993.6 mb - 0.01 in0.3 mm 0.44 in11.2 mm
02:35 PM 54.4°F12.4°C 48.0°F8.9°C 79% 9.2 mph E14.8 kmh E 12.7 mph20.4 kmh 29.33 in993.2 mb - 0.00 in0.0 mm 0.44 in11.2 mm
02:40 PM 54.4°F12.4°C 48.1°F8.9°C 79% 8.1 mph ESE13.0 kmh ESE 16.1 mph25.9 kmh 29.33 in993.2 mb - 0.00 in0.0 mm 0.44 in11.2 mm
02:45 PM 54.5°F12.5°C 48.1°F8.9°C 79% 12.7 mph E20.4 kmh E 16.1 mph25.9 kmh 29.33 in993.2 mb - 0.00 in0.0 mm 0.44 in11.2 mm
02:50 PM 54.7°F12.6°C 48.3°F9.1°C 79% 11.5 mph E18.5 kmh E 15.0 mph24.1 kmh 29.32 in992.9 mb - 0.00 in0.0 mm 0.44 in11.2 mm
02:55 PM 54.8°F12.7°C 48.4°F9.1°C 79% 15.0 mph E24.1 kmh E 21.9 mph35.2 kmh 29.32 in992.9 mb - 0.00 in0.0 mm 0.44 in11.2 mm
03:00 PM 55.0°F12.8°C 48.6°F9.2°C 79% 12.7 mph E20.4 kmh E 17.3 mph27.8 kmh 29.32 in992.9 mb - 0.00 in0.0 mm 0.44 in11.2 mm
03:05 PM 55.3°F12.9°C 48.9°F9.4°C 79% 8.1 mph SE13.0 kmh SE 11.5 mph18.5 kmh 29.31 in992.6 mb - 0.00 in0.0 mm 0.44 in11.2 mm
03:10 PM 55.3°F12.9°C 48.9°F9.4°C 79% 5.8 mph SE9.3 kmh SE 11.5 mph18.5 kmh 29.31 in992.6 mb - 0.00 in0.0 mm 0.44 in11.2 mm
03:15 PM 55.1°F12.8°C 48.4°F9.1°C 78% 5.8 mph SE9.3 kmh SE 11.5 mph18.5 kmh 29.30 in992.2 mb - 0.00 in0.0 mm 0.44 in11.2 mm
03:20 PM 55.2°F12.9°C 48.5°F9.2°C 78% 6.9 mph SSE11.1 kmh SSE 11.5 mph18.5 kmh 29.31 in992.6 mb - 0.00 in0.0 mm 0.44 in11.2 mm
03:25 PM 55.5°F13.1°C 48.8°F9.3°C 78% 10.4 mph SE16.7 kmh SE 16.1 mph25.9 kmh 29.30 in992.2 mb - 0.00 in0.0 mm 0.44 in11.2 mm
03:30 PM 55.7°F13.2°C 48.9°F9.4°C 78% 6.9 mph SE11.1 kmh SE 10.4 mph16.7 kmh 29.30 in992.2 mb - 0.00 in0.0 mm 0.44 in11.2 mm
03:35 PM 56.0°F13.3°C 49.2°F9.6°C 78% 15.0 mph E24.1 kmh E 16.1 mph25.9 kmh 29.31 in992.6 mb - 0.00 in0.0 mm 0.44 in11.2 mm
03:40 PM 56.4°F13.6°C 49.6°F9.8°C 78% 10.4 mph ESE16.7 kmh ESE 11.5 mph18.5 kmh 29.31 in992.6 mb - 0.00 in0.0 mm 0.44 in11.2 mm
03:45 PM 56.6°F13.7°C 49.8°F9.9°C 78% 9.2 mph ESE14.8 kmh ESE 12.7 mph20.4 kmh 29.30 in992.2 mb - 0.00 in0.0 mm 0.44 in11.2 mm
03:50 PM 56.7°F13.7°C 49.5°F9.7°C 77% 12.7 mph E20.4 kmh E 18.4 mph29.6 kmh 29.30 in992.2 mb - 0.00 in0.0 mm 0.44 in11.2 mm
03:55 PM 56.8°F13.8°C 49.7°F9.8°C 77% 9.2 mph ESE14.8 kmh ESE 13.8 mph22.2 kmh 29.30 in992.2 mb - 0.00 in0.0 mm 0.44 in11.2 mm
04:00 PM 56.7°F13.7°C 49.6°F9.8°C 77% 8.1 mph E13.0 kmh E 11.5 mph18.5 kmh 29.30 in992.2 mb - 0.00 in0.0 mm 0.44 in11.2 mm
04:05 PM 56.7°F13.7°C 49.6°F9.8°C 77% 9.2 mph E14.8 kmh E 11.5 mph18.5 kmh 29.29 in991.9 mb - 0.00 in0.0 mm 0.44 in11.2 mm
04:10 PM 56.7°F13.7°C 49.6°F9.8°C 77% 8.1 mph E13.0 kmh E 11.5 mph18.5 kmh 29.29 in991.9 mb - 0.00 in0.0 mm 0.44 in11.2 mm
04:15 PM 56.8°F13.8°C 49.7°F9.8°C 77% 8.1 mph E13.0 kmh E 11.5 mph18.5 kmh 29.29 in991.9 mb - 0.00 in0.0 mm 0.44 in11.2 mm
04:20 PM 56.8°F13.8°C 49.7°F9.8°C 77% 10.4 mph E16.7 kmh E 12.7 mph20.4 kmh 29.29 in991.9 mb - 0.00 in0.0 mm 0.44 in11.2 mm
04:25 PM 56.8°F13.8°C 50.0°F10.0°C 78% 10.4 mph E16.7 kmh E 12.7 mph20.4 kmh 29.29 in991.9 mb - 0.00 in0.0 mm 0.44 in11.2 mm
04:30 PM 56.9°F13.8°C 49.8°F9.9°C 77% 10.4 mph E16.7 kmh E 13.8 mph22.2 kmh 29.29 in991.9 mb - 0.00 in0.0 mm 0.44 in11.2 mm
04:35 PM 57.0°F13.9°C 49.9°F9.9°C 77% 9.2 mph E14.8 kmh E 11.5 mph18.5 kmh 29.29 in991.9 mb - 0.00 in0.0 mm 0.44 in11.2 mm
04:40 PM 57.0°F13.9°C 49.9°F9.9°C 77% 9.2 mph E14.8 kmh E 12.7 mph20.4 kmh 29.29 in991.9 mb - 0.00 in0.0 mm 0.44 in11.2 mm
04:45 PM 57.1°F13.9°C 50.3°F10.2°C 78% 5.8 mph E9.3 kmh E 11.5 mph18.5 kmh 29.28 in991.5 mb - 0.00 in0.0 mm 0.44 in11.2 mm
04:50 PM 57.2°F14.0°C 50.4°F10.2°C 78% 6.9 mph E11.1 kmh E 11.5 mph18.5 kmh 29.28 in991.5 mb - 0.00 in0.0 mm 0.44 in11.2 mm
04:55 PM 57.3°F14.1°C 50.5°F10.3°C 78% 9.2 mph E14.8 kmh E 12.7 mph20.4 kmh 29.28 in991.5 mb - 0.00 in0.0 mm 0.44 in11.2 mm
05:00 PM 57.4°F14.1°C 50.6°F10.3°C 78% 6.9 mph E11.1 kmh E 10.4 mph16.7 kmh 29.28 in991.5 mb - 0.00 in0.0 mm 0.44 in11.2 mm
05:05 PM 57.6°F14.2°C 50.8°F10.4°C 78% 11.5 mph E18.5 kmh E 13.8 mph22.2 kmh 29.28 in991.5 mb - 0.00 in0.0 mm 0.44 in11.2 mm
05:10 PM 57.8°F14.3°C 51.0°F10.6°C 78% 6.9 mph E11.1 kmh E 10.4 mph16.7 kmh 29.28 in991.5 mb - 0.00 in0.0 mm 0.44 in11.2 mm
05:15 PM 57.9°F14.4°C 51.1°F10.6°C 78% 8.1 mph E13.0 kmh E 11.5 mph18.5 kmh 29.28 in991.5 mb - 0.00 in0.0 mm 0.44 in11.2 mm
05:20 PM 58.0°F14.4°C 51.2°F10.7°C 78% 8.1 mph E13.0 kmh E 10.4 mph16.7 kmh 29.27 in991.2 mb - 0.00 in0.0 mm 0.44 in11.2 mm
05:25 PM 58.1°F14.5°C 51.3°F10.7°C 78% 8.1 mph E13.0 kmh E 11.5 mph18.5 kmh 29.27 in991.2 mb - 0.00 in0.0 mm 0.44 in11.2 mm
05:30 PM 58.3°F14.6°C 51.4°F10.8°C 78% 6.9 mph E11.1 kmh E 10.4 mph16.7 kmh 29.27 in991.2 mb - 0.00 in0.0 mm 0.44 in11.2 mm
05:35 PM 58.3°F14.6°C 51.5°F10.8°C 78% 8.1 mph E13.0 kmh E 10.4 mph16.7 kmh 29.28 in991.5 mb - 0.00 in0.0 mm 0.44 in11.2 mm
05:40 PM 58.4°F14.7°C 51.2°F10.7°C 77% 8.1 mph E13.0 kmh E 11.5 mph18.5 kmh 29.28 in991.5 mb - 0.00 in0.0 mm 0.44 in11.2 mm
05:45 PM 58.4°F14.7°C 51.2°F10.7°C 77% 8.1 mph E13.0 kmh E 9.2 mph14.8 kmh 29.28 in991.5 mb - 0.00 in0.0 mm 0.44 in11.2 mm
05:50 PM 58.4°F14.7°C 51.6°F10.9°C 78% 6.9 mph E11.1 kmh E 10.4 mph16.7 kmh 29.28 in991.5 mb - 0.00 in0.0 mm 0.44 in11.2 mm
05:55 PM 58.4°F14.7°C 51.6°F10.9°C 78% 6.9 mph E11.1 kmh E 9.2 mph14.8 kmh 29.29 in991.9 mb - 0.00 in0.0 mm 0.44 in11.2 mm
06:00 PM 58.4°F14.7°C 51.6°F10.9°C 78% 5.8 mph ESE9.3 kmh ESE 9.2 mph14.8 kmh 29.28 in991.5 mb - 0.00 in0.0 mm 0.44 in11.2 mm
06:05 PM 58.5°F14.7°C 51.7°F10.9°C 78% 2.3 mph SSE3.7 kmh SSE 3.5 mph5.6 kmh 29.28 in991.5 mb - 0.00 in0.0 mm 0.44 in11.2 mm
06:10 PM 58.5°F14.7°C 51.7°F10.9°C 78% 3.5 mph SE5.6 kmh SE 3.5 mph5.6 kmh 29.29 in991.9 mb - 0.00 in0.0 mm 0.44 in11.2 mm
06:15 PM 58.5°F14.7°C 51.6°F10.9°C 78% 2.3 mph SE3.7 kmh SE 3.5 mph5.6 kmh 29.29 in991.9 mb - 0.00 in0.0 mm 0.44 in11.2 mm
06:20 PM 58.4°F14.7°C 51.6°F10.9°C 78% 2.3 mph ESE3.7 kmh ESE 3.5 mph5.6 kmh 29.28 in991.5 mb - 0.00 in0.0 mm 0.44 in11.2 mm
06:25 PM 58.5°F14.7°C 51.7°F10.9°C 78% 5.8 mph ESE9.3 kmh ESE 9.2 mph14.8 kmh 29.29 in991.9 mb - 0.00 in0.0 mm 0.44 in11.2 mm
06:30 PM 58.6°F14.8°C 51.7°F10.9°C 78% 6.9 mph E11.1 kmh E 10.4 mph16.7 kmh 29.28 in991.5 mb - 0.00 in0.0 mm 0.44 in11.2 mm
06:35 PM 58.6°F14.8°C 51.8°F11.0°C 78% 5.8 mph ESE9.3 kmh ESE 9.2 mph14.8 kmh 29.29 in991.9 mb - 0.00 in0.0 mm 0.44 in11.2 mm
06:40 PM 58.6°F14.8°C 51.8°F11.0°C 78% 3.5 mph ESE5.6 kmh ESE 9.2 mph14.8 kmh 29.29 in991.9 mb - 0.00 in0.0 mm 0.44 in11.2 mm
06:45 PM 58.7°F14.8°C 51.9°F11.1°C 78% 4.6 mph SSW7.4 kmh SSW 5.8 mph9.3 kmh 29.29 in991.9 mb - 0.00 in0.0 mm 0.44 in11.2 mm
06:50 PM 58.6°F14.8°C 51.8°F11.0°C 78% 3.5 mph WSW5.6 kmh WSW 3.5 mph5.6 kmh 29.29 in991.9 mb - 0.00 in0.0 mm 0.44 in11.2 mm
06:55 PM 58.6°F14.8°C 51.8°F11.0°C 78% 2.3 mph SW3.7 kmh SW 6.9 mph11.1 kmh 29.29 in991.9 mb - 0.00 in0.0 mm 0.44 in11.2 mm
07:00 PM 58.4°F14.7°C 51.6°F10.9°C 78% 1.2 mph WSW1.9 kmh WSW 3.5 mph5.6 kmh 29.29 in991.9 mb - 0.00 in0.0 mm 0.44 in11.2 mm
07:05 PM 58.2°F14.6°C 51.0°F10.6°C 77% 2.3 mph W3.7 kmh W 3.5 mph5.6 kmh 29.30 in992.2 mb - 0.00 in0.0 mm 0.44 in11.2 mm
07:10 PM 57.9°F14.4°C 50.7°F10.4°C 77% 3.5 mph S5.6 kmh S 3.5 mph5.6 kmh 29.30 in992.2 mb - 0.00 in0.0 mm 0.44 in11.2 mm
07:15 PM 57.6°F14.2°C 50.5°F10.3°C 77% 3.5 mph SW5.6 kmh SW 6.9 mph11.1 kmh 29.31 in992.6 mb - 0.00 in0.0 mm 0.44 in11.2 mm
07:20 PM 57.3°F14.1°C 50.2°F10.1°C 77% 2.3 mph WSW3.7 kmh WSW 3.5 mph5.6 kmh 29.31 in992.6 mb - 0.00 in0.0 mm 0.44 in11.2 mm
07:25 PM 57.1°F13.9°C 50.0°F10.0°C 77% 3.5 mph WSW5.6 kmh WSW 6.9 mph11.1 kmh 29.31 in992.6 mb - 0.00 in0.0 mm 0.44 in11.2 mm
07:30 PM 56.9°F13.8°C 49.8°F9.9°C 77% 2.3 mph WSW3.7 kmh WSW 3.5 mph5.6 kmh 29.32 in992.9 mb - 0.00 in0.0 mm 0.44 in11.2 mm
07:35 PM 56.7°F13.7°C 49.6°F9.8°C 77% 8.1 mph SW13.0 kmh SW 10.4 mph16.7 kmh 29.31 in992.6 mb - 0.00 in0.0 mm 0.44 in11.2 mm
07:40 PM 56.5°F13.6°C 49.4°F9.7°C 77% 2.3 mph SSW3.7 kmh SSW 6.9 mph11.1 kmh 29.32 in992.9 mb - 0.00 in0.0 mm 0.44 in11.2 mm
07:45 PM 56.4°F13.6°C 49.3°F9.6°C 77% 2.3 mph S3.7 kmh S 3.5 mph5.6 kmh 29.33 in993.2 mb - 0.00 in0.0 mm 0.44 in11.2 mm
07:50 PM 56.3°F13.5°C 49.2°F9.6°C 77% 2.3 mph S3.7 kmh S 9.2 mph14.8 kmh 29.33 in993.2 mb - 0.00 in0.0 mm 0.44 in11.2 mm
07:55 PM 56.2°F13.4°C 49.1°F9.5°C 77% 3.5 mph S5.6 kmh S 5.8 mph9.3 kmh 29.34 in993.6 mb - 0.00 in0.0 mm 0.44 in11.2 mm
08:00 PM 56.0°F13.3°C 48.9°F9.4°C 77% 4.6 mph S7.4 kmh S 6.9 mph11.1 kmh 29.33 in993.2 mb - 0.00 in0.0 mm 0.44 in11.2 mm
08:05 PM 55.8°F13.2°C 48.7°F9.3°C 77% 5.8 mph S9.3 kmh S 6.9 mph11.1 kmh 29.34 in993.6 mb - 0.00 in0.0 mm 0.44 in11.2 mm
08:10 PM 55.5°F13.1°C 48.4°F9.1°C 77% 4.6 mph S7.4 kmh S 5.8 mph9.3 kmh 29.34 in993.6 mb - 0.00 in0.0 mm 0.44 in11.2 mm
08:15 PM 55.1°F12.8°C 48.0°F8.9°C 77% 5.8 mph S9.3 kmh S 6.9 mph11.1 kmh 29.34 in993.6 mb - 0.00 in0.0 mm 0.44 in11.2 mm
08:20 PM 54.7°F12.6°C 47.7°F8.7°C 77% 3.5 mph S5.6 kmh S 8.1 mph13.0 kmh 29.35 in993.9 mb - 0.00 in0.0 mm 0.44 in11.2 mm
08:25 PM 54.5°F12.5°C 47.4°F8.6°C 77% 4.6 mph SSE7.4 kmh SSE 6.9 mph11.1 kmh 29.36 in994.2 mb - 0.00 in0.0 mm 0.44 in11.2 mm
08:30 PM 54.2°F12.3°C 47.1°F8.4°C 77% 2.3 mph SSE3.7 kmh SSE 4.6 mph7.4 kmh 29.36 in994.2 mb - 0.00 in0.0 mm 0.44 in11.2 mm
08:35 PM 54.1°F12.3°C 47.0°F8.3°C 77% 3.5 mph SSW5.6 kmh SSW 3.5 mph5.6 kmh 29.37 in994.6 mb - 0.00 in0.0 mm 0.44 in11.2 mm
08:40 PM 54.0°F12.2°C 47.0°F8.3°C 77% 1.2 mph SW1.9 kmh SW 3.5 mph5.6 kmh 29.37 in994.6 mb - 0.00 in0.0 mm 0.44 in11.2 mm
08:45 PM 53.9°F12.2°C 46.9°F8.3°C 77% 1.2 mph NW1.9 kmh NW 2.3 mph3.7 kmh 29.37 in994.6 mb - 0.00 in0.0 mm 0.44 in11.2 mm
08:50 PM 53.8°F12.1°C 46.8°F8.2°C 77% 3.5 mph SW5.6 kmh SW 3.5 mph5.6 kmh 29.37 in994.6 mb - 0.00 in0.0 mm 0.44 in11.2 mm
08:55 PM 53.8°F12.1°C 46.8°F8.2°C 77% 2.3 mph WSW3.7 kmh WSW 3.5 mph5.6 kmh 29.37 in994.6 mb - 0.00 in0.0 mm 0.44 in11.2 mm
09:00 PM 53.9°F12.2°C 46.9°F8.3°C 77% 2.3 mph SW3.7 kmh SW 5.8 mph9.3 kmh 29.38 in994.9 mb - 0.00 in0.0 mm 0.44 in11.2 mm
09:05 PM 53.8°F12.1°C 46.7°F8.2°C 77% 4.6 mph WSW7.4 kmh WSW 12.7 mph20.4 kmh 29.38 in994.9 mb - 0.00 in0.0 mm 0.44 in11.2 mm
09:10 PM 53.6°F12.0°C 46.9°F8.3°C 78% 8.1 mph W13.0 kmh W 11.5 mph18.5 kmh 29.38 in994.9 mb - 0.00 in0.0 mm 0.44 in11.2 mm
09:15 PM 53.2°F11.8°C 46.5°F8.1°C 78% 5.8 mph W9.3 kmh W 8.1 mph13.0 kmh 29.38 in994.9 mb - 0.00 in0.0 mm 0.44 in11.2 mm
09:20 PM 53.0°F11.7°C 46.3°F7.9°C 78% 4.6 mph WSW7.4 kmh WSW 6.9 mph11.1 kmh 29.38 in994.9 mb - 0.00 in0.0 mm 0.44 in11.2 mm
09:25 PM 52.8°F11.6°C 46.1°F7.8°C 78% 3.5 mph WSW5.6 kmh WSW 6.9 mph11.1 kmh 29.38 in994.9 mb - 0.00 in0.0 mm 0.44 in11.2 mm
09:30 PM 52.6°F11.4°C 45.9°F7.7°C 78% 2.3 mph W3.7 kmh W 6.9 mph11.1 kmh 29.39 in995.3 mb - 0.00 in0.0 mm 0.44 in11.2 mm
09:35 PM 52.4°F11.3°C 45.7°F7.6°C 78% 2.3 mph WSW3.7 kmh WSW 3.5 mph5.6 kmh 29.39 in995.3 mb - 0.00 in0.0 mm 0.44 in11.2 mm
09:40 PM 52.2°F11.2°C 45.5°F7.5°C 78% 2.3 mph SW3.7 kmh SW 3.5 mph5.6 kmh 29.39 in995.3 mb - 0.00 in0.0 mm 0.44 in11.2 mm
09:45 PM 51.9°F11.1°C 45.3°F7.4°C 78% 3.5 mph WSW5.6 kmh WSW 9.2 mph14.8 kmh 29.39 in995.3 mb - 0.00 in0.0 mm 0.44 in11.2 mm
09:50 PM 51.7°F10.9°C 45.0°F7.2°C 78% 3.5 mph WSW5.6 kmh WSW 5.8 mph9.3 kmh 29.40 in995.6 mb - 0.00 in0.0 mm 0.44 in11.2 mm
09:55 PM 51.3°F10.7°C 44.7°F7.1°C 78% 6.9 mph WSW11.1 kmh WSW 11.5 mph18.5 kmh 29.40 in995.6 mb - 0.00 in0.0 mm 0.44 in11.2 mm
10:00 PM 51.1°F10.6°C 44.5°F6.9°C 78% 4.6 mph W7.4 kmh W 9.2 mph14.8 kmh 29.40 in995.6 mb - 0.00 in0.0 mm 0.44 in11.2 mm
10:05 PM 50.9°F10.5°C 44.3°F6.8°C 78% 2.3 mph WSW3.7 kmh WSW 3.5 mph5.6 kmh 29.40 in995.6 mb - 0.00 in0.0 mm 0.44 in11.2 mm
10:10 PM 50.6°F10.3°C 44.0°F6.7°C 78% 3.5 mph W5.6 kmh W 8.1 mph13.0 kmh 29.40 in995.6 mb - 0.01 in0.3 mm 0.45 in11.4 mm
10:15 PM 50.3°F10.2°C 43.7°F6.5°C 78% 4.6 mph W7.4 kmh W 8.1 mph13.0 kmh 29.41 in995.9 mb - 0.01 in0.3 mm 0.45 in11.4 mm
10:20 PM 50.1°F10.1°C 43.5°F6.4°C 78% 2.3 mph NW3.7 kmh NW 3.5 mph5.6 kmh 29.41 in995.9 mb - 0.00 in0.0 mm 0.45 in11.4 mm
10:25 PM 49.9°F9.9°C 43.3°F6.3°C 78% 3.5 mph W5.6 kmh W 8.1 mph13.0 kmh 29.41 in995.9 mb - 0.00 in0.0 mm 0.45 in11.4 mm
10:30 PM 49.8°F9.9°C 43.2°F6.2°C 78% 5.8 mph W9.3 kmh W 10.4 mph16.7 kmh 29.41 in995.9 mb - 0.00 in0.0 mm 0.45 in11.4 mm
10:35 PM 49.7°F9.8°C 43.1°F6.2°C 78% 6.9 mph W11.1 kmh W 11.5 mph18.5 kmh 29.41 in995.9 mb - 0.00 in0.0 mm 0.45 in11.4 mm
10:40 PM 49.6°F9.8°C 43.0°F6.1°C 78% 5.8 mph W9.3 kmh W 10.4 mph16.7 kmh 29.41 in995.9 mb - 0.00 in0.0 mm 0.45 in11.4 mm
10:45 PM 49.5°F9.7°C 42.9°F6.1°C 78% 6.9 mph W11.1 kmh W 15.0 mph24.1 kmh 29.42 in996.3 mb - 0.00 in0.0 mm 0.45 in11.4 mm
10:50 PM 49.4°F9.7°C 42.8°F6.0°C 78% 3.5 mph W5.6 kmh W 10.4 mph16.7 kmh 29.42 in996.3 mb - 0.00 in0.0 mm 0.45 in11.4 mm
10:55 PM 49.4°F9.7°C 42.8°F6.0°C 78% 2.3 mph W3.7 kmh W 3.5 mph5.6 kmh 29.43 in996.6 mb - 0.00 in0.0 mm 0.45 in11.4 mm
11:00 PM 49.4°F9.7°C 42.8°F6.0°C 78% 4.6 mph NW7.4 kmh NW 8.1 mph13.0 kmh 29.43 in996.6 mb - 0.00 in0.0 mm 0.66 in16.8 mm
11:05 PM 49.4°F9.7°C 42.8°F6.0°C 78% 3.5 mph W5.6 kmh W 3.5 mph5.6 kmh 29.43 in996.6 mb - 0.00 in0.0 mm 0.66 in16.8 mm
11:10 PM 49.4°F9.7°C 42.8°F6.0°C 78% 3.5 mph NW5.6 kmh NW 8.1 mph13.0 kmh 29.44 in997.0 mb - 0.00 in0.0 mm 0.66 in16.8 mm
11:15 PM 49.3°F9.6°C 42.7°F5.9°C 78% 2.3 mph WNW3.7 kmh WNW 3.5 mph5.6 kmh 29.44 in997.0 mb - 0.00 in0.0 mm 0.66 in16.8 mm
11:20 PM 49.1°F9.5°C 42.5°F5.8°C 78% 4.6 mph NW7.4 kmh NW 8.1 mph13.0 kmh 29.44 in997.0 mb - 0.00 in0.0 mm 0.66 in16.8 mm
11:25 PM 49.0°F9.4°C 42.4°F5.8°C 78% 2.3 mph W3.7 kmh W 6.9 mph11.1 kmh 29.45 in997.3 mb - 0.00 in0.0 mm 0.66 in16.8 mm
11:30 PM 48.9°F9.4°C 42.3°F5.7°C 78% 4.6 mph W7.4 kmh W 9.2 mph14.8 kmh 29.45 in997.3 mb - 0.00 in0.0 mm 0.66 in16.8 mm
11:35 PM 48.9°F9.4°C 42.3°F5.7°C 78% 4.6 mph W7.4 kmh W 6.9 mph11.1 kmh 29.46 in997.6 mb - 0.00 in0.0 mm 0.66 in16.8 mm
11:40 PM 49.0°F9.4°C 42.4°F5.8°C 78% 4.6 mph WSW7.4 kmh WSW 3.5 mph5.6 kmh 29.46 in997.6 mb - 0.00 in0.0 mm 0.66 in16.8 mm
11:45 PM 49.1°F9.5°C 42.5°F5.8°C 78% 3.5 mph W5.6 kmh W 9.2 mph14.8 kmh 29.47 in998.0 mb - 0.00 in0.0 mm 0.66 in16.8 mm
11:50 PM 49.1°F9.5°C 42.5°F5.8°C 78% 3.5 mph WSW5.6 kmh WSW 5.8 mph9.3 kmh 29.47 in998.0 mb - 0.00 in0.0 mm 0.66 in16.8 mm
11:55 PM 49.2°F9.6°C 42.6°F5.9°C 78% 8.1 mph W13.0 kmh W 8.1 mph13.0 kmh 29.47 in998.0 mb - 0.00 in0.0 mm 0.66 in16.8 mm